Flight Track Log - Related Links

Times and Time Zones

All times are in EDT time to prevent confusion due to time zone crossing. See the N820JA flight status page for this flight to view local times or setup timezone preferences in your user account.


Time Position Orientation Groundspeed Altitude Reporting Facility
EDT Latitude Longitude Course Direction KTS MPH feet Rate Location/Type
Sun 04:33:51 PM 42.7236 -73.8050 173° South 65 75 1,500  Level Boston Center
Sun 04:34:46 PM 42.7069 -73.8047 179° South 68 78 2,000 569 Climbing Boston Center
Sun 04:35:47 PM 42.6881 -73.8072 186° South 67 77 2,600 609 Climbing Boston Center
Sun 04:36:54 PM 42.6672 -73.8067 179° South 69 79 3,300 609 Climbing Boston Center
Sun 04:37:55 PM 42.6464 -73.8064 179° South 72 83 3,900 545 Climbing Boston Center
Sun 04:38:55 PM 42.6297 -73.8058 179° South 65 75 4,400 496 Climbing Boston Center
Sun 04:39:56 PM 42.6111 -73.8083 186° South 70 81 4,900 496 Climbing Boston Center
Sun 04:40:56 PM 42.5881 -73.8106 184° South 69 79 5,400 545 Climbing Boston Center
Sun 04:41:57 PM 42.5692 -73.8103 179° South 74 85 6,000 507 Climbing Boston Center
Sun 04:43:18 PM 42.5422 -73.8069 175° South 81 93 6,600 426 Climbing Boston Center
Sun 04:44:18 PM 42.5233 -73.8092 185° South 86 99 7,000 400 Climbing Boston Center
Sun 04:45:18 PM 42.4983 -73.8086 179° South 86 99 7,400 350 Climbing Boston Center
Sun 04:46:18 PM 42.4797 -73.8056 173° South 86 99 7,700 347 Climbing Boston Center
Sun 04:47:19 PM 42.4547 -73.8106 188° South 86 99 8,100 400 Climbing Boston Center
Sun 04:48:18 PM 42.4358 -73.8100 179° South 86 99 8,500 403 Climbing Boston Center
Sun 04:49:18 PM 42.4089 -73.8094 179° South 86 99 8,900 350 Climbing Boston Center
Sun 04:50:18 PM 42.3900 -73.8119 186° South 86 99 9,200 300 Climbing Boston Center
Sun 04:51:18 PM 42.3631 -73.8114 179° South 86 99 9,500 250 Climbing Boston Center
Sun 04:52:18 PM 42.3442 -73.8053 167° South 86 99 9,700 250 Climbing Boston Center
Sun 04:53:18 PM 42.3194 -73.7964 165° South 86 99 10,000 400 Climbing Boston Center
Sun 04:54:18 PM 42.2986 -73.7903 168° South 86 99 10,500 350 Climbing Boston Center
Sun 04:55:18 PM 42.2736 -73.7814 165° South 86 99 10,700 250 Climbing Boston Center
Sun 04:56:18 PM 42.2531 -73.7725 162° South 86 99 11,000 150 Climbing Boston Center
Sun 04:57:18 PM 42.2281 -73.7636 165° South 86 99 11,000 50 Level Boston Center
Sun 04:58:18 PM 42.2072 -73.7575 168° South 86 99 11,100 50 Climbing Boston Center
Sun 04:59:18 PM 42.1761 -73.7456 164° South 97 112 11,100  Level Boston Center
Sun 05:00:30 PM 42.1492 -73.7367 166° South 107 123 11,100  Level Boston Center
Sun 05:01:30 PM 42.1139 -73.7247 166° South 107 123 11,100  Level Boston Center
Sun 05:02:31 PM 42.0806 -73.7100 162° South 107 123 11,100  Level Boston Center
Sun 05:03:30 PM 42.0494 -73.7039 172° South 107 123 11,100 -46 Level Boston Center
Sun 05:04:42 PM 42.0225 -73.6919 162° South 107 123 11,000 -182 Descending Boston Center
Sun 05:05:42 PM 41.9831 -73.6772 164° South 112 129 10,700 -600 Descending Boston Center
Sun 05:06:42 PM 41.9456 -73.6656 167° South 127 146 9,800 -800 Descending Boston Center
Sun 05:07:42 PM 41.9125 -73.6536 165° South 132 152 9,100 -650 Descending Boston Center
Sun 05:08:42 PM 41.8792 -73.6419 165° South 132 152 8,500 -650 Descending Boston Center
Sun 05:09:42 PM 41.8419 -73.6300 167° South 132 152 7,800 -600 Descending Boston Center
Sun 05:10:42 PM 41.8128 -73.6183 163° South 127 146 7,300 -600 Descending Boston Center
Sun 05:11:42 PM 41.7756 -73.6036 164° South 127 146 6,600 -600 Descending Boston Center
Sun 05:12:42 PM 41.7483 -73.5919 162° South 127 146 6,100 -250 Descending Boston Center
Sun 05:13:42 PM 41.7153 -73.5747 159° South 122 140 6,100  Level Boston Center
Sun 05:14:42 PM 41.6903 -73.5633 161° South 116 133 6,100 -50 Level Boston Center
Sun 05:15:42 PM 41.6614 -73.5489 160° South 116 133 6,000 -50 Descending Boston Center
Sun 05:16:42 PM 41.6303 -73.5344 161° South 111 128 6,000  Level Boston Center
Sun 05:17:42 PM 41.5992 -73.5200 161° South 106 122 6,000  Level Boston Center
Sun 05:18:42 PM 41.5742 -73.5083 161° South 106 122 6,000 -400 Level Boston Center
Sun 05:19:42 PM 41.5411 -73.4911 159° South 106 122 5,200 -551 Descending Boston Center
Sun 05:22:09 PM 41.4833 -73.4333 143° Southeast 113 130 4,100 -319 Descending New York TRACON
Sun 05:23:09 PM 41.4500 -73.4000 143° Southeast 109 125 4,100  Level New York TRACON
Sun 05:24:09 PM 41.4333 -73.3833 143° Southeast 110 127 4,100  Level New York TRACON
Sun 05:25:09 PM 41.4000 -73.3500 143° Southeast 114 131 4,100  Level New York TRACON
Sun 05:26:09 PM 41.3833 -73.3333 143° Southeast 116 133 4,100  Level New York TRACON
Sun 05:27:09 PM 41.3500 -73.3000 143° Southeast 117 135 4,100  Level New York TRACON
Sun 05:28:09 PM 41.3167 -73.2833 159° South 117 135 4,100  Level New York TRACON
Sun 05:29:09 PM 41.3000 -73.2500 124° Southeast 119 137 4,100  Level New York TRACON
Sun 05:30:09 PM 41.2667 -73.2333 159° South 115 132 4,100  Level New York TRACON
Sun 05:31:09 PM 41.2500 -73.2000 124° Southeast 116 133 4,100  Level New York TRACON
Sun 05:32:03 PM 41.2167 -73.1833 159° South 117 135 4,100  Level New York TRACON
Sun 05:33:09 PM 41.2000 -73.1500 124° Southeast 118 136 4,100  Level New York TRACON
Sun 05:34:09 PM 41.1667 -73.1333 159° South 116 133 4,100  Level New York TRACON
Sun 05:35:09 PM 41.1500 -73.1000 124° Southeast 121 139 4,100  Level New York TRACON
Sun 05:36:09 PM 41.1167 -73.0667 143° Southeast 123 142 4,100  Level New York TRACON
Sun 05:37:09 PM 41.1000 -73.0333 124° Southeast 123 142 4,100  Level New York TRACON
Sun 05:38:09 PM 41.0667 -73.0000 143° Southeast 123 142 4,100  Level New York TRACON
Sun 05:39:03 PM 41.0500 -73.0000 180° South 104 120 4,100  Level New York TRACON
Sun 05:40:09 PM 41.0333 -73.0333 236° Southwest 96 110 4,100  Level New York TRACON
Sun 05:41:09 PM 41.0167 -73.0500 217° Southwest 94 108 4,100  Level New York TRACON
Sun 05:42:09 PM 40.9833 -73.0667 201° Southwest 95 109 4,100 -200 Level New York TRACON
Sun 05:43:09 PM 40.9667 -73.1000 236° Southwest 102 117 3,700 -550 Descending New York TRACON
Sun 05:44:09 PM 40.9500 -73.1167 217° Southwest 103 119 3,000 -300 Descending New York TRACON
Sun 05:45:09 PM 40.9333 -73.1500 237° Southwest 89 102 3,100 50 Climbing New York TRACON
Sun 05:46:09 PM 40.9167 -73.1667 217° Southwest 95 109 3,100  Level New York TRACON
Sun 05:47:15 PM 40.8833 -73.1833 201° Southwest 92 106 3,100 -50 Level New York TRACON
Sun 05:48:09 PM 40.8833 -73.2167 270° West 105 121 3,000  Descending New York TRACON
Sun 05:49:15 PM 40.9167 -73.2500 323° Northwest 115 132 3,100  Climbing New York TRACON
Sun 05:50:15 PM 40.9333 -73.2667 323° Northwest 113 130 3,000 -400 Descending New York TRACON
Sun 05:51:15 PM 40.9333 -73.3000 270° West 86 99 2,300 -450 Descending New York TRACON
Sun 05:52:15 PM 40.9167 -73.3333 237° Southwest 82 94 2,100 -105 Descending New York TRACON
Sun 05:53:09 PM 40.9167 -73.3667 270° West 93 107 2,100  Level New York TRACON
Sun 05:54:15 PM 40.9167 -73.4000 270° West 92 106 2,100 -50 Level New York TRACON
Sun 05:55:09 PM 40.9000 -73.4167 217° Southwest 104 120 2,000 -263 Descending New York TRACON
Sun 05:56:09 PM 40.8833 -73.4167 180° South 83 96 1,600 -143 Descending New York TRACON
Sun 05:57:15 PM 40.8500 -73.4167 180° South 62 71 1,700 143 Climbing New York TRACON
Sun 05:58:15 PM 40.8333 -73.4167 180° South 62 71 1,900 158 Climbing New York TRACON
Sun 05:59:09 PM 40.8167 -73.4167 180° South 75 86 2,000 -158 Climbing New York TRACON
Sun 06:00:09 PM 40.8000 -73.4167 180° South 74 85 1,600 -450 Descending New York TRACON
Sun 06:01:09 PM 40.7833 -73.4167 180° South 74 85 1,100 -450 Descending New York TRACON
Sun 06:02:09 PM 40.7667 -73.4167 180° South 80 92 700 -400 Descending New York TRACON
Sun 06:04:00 PM 40.7288 -73.4134 180° South  Level Estimated

Login

Don't have an account? Register now (free) for customized features, flight alerts, and more!